Aviation Digital Data Service (ADDS)

Output produced by METARs form (2153 UTC 18 April 2021)
found at http://www.aviationweather.gov/metar/data/
 
METAR text: EKBI 182150Z AUTO 10002KT 9999 NCD 07/01 Q1024
Conditions at: EKBI (BILLUND AIRPORT , DK) observed 2150 UTC 18 April 2021
Temperature: 7.0°C (45°F)
Dewpoint: 1.0°C (34°F) [RH = 66%]
Pressure (altimeter): 30.24 inches Hg (1024.0 mb)
Winds: from the E (100 degrees) at 2 MPH (2 knots; 1.0 m/s)
Visibility: 6 or more miles (10+ km)
Ceiling: at least 12,000 feet AGL
Clouds: sky clear below 12,000 feet AGL
Weather: no significant weather observed at this time

METAR text: EKBI 182120Z AUTO 02004KT 9999 NCD 05/02 Q1024
Conditions at: EKBI (BILLUND AIRPORT , DK) observed 2120 UTC 18 April 2021
Temperature: 5.0°C (41°F)
Dewpoint: 2.0°C (36°F) [RH = 81%]
Pressure (altimeter): 30.24 inches Hg (1024.0 mb)
Winds: from the NNE (20 degrees) at 5 MPH (4 knots; 2.1 m/s)
Visibility: 6 or more miles (10+ km)
Ceiling: at least 12,000 feet AGL
Clouds: sky clear below 12,000 feet AGL
Weather: no significant weather observed at this time

METAR text: EKBI 182050Z AUTO 04002KT 9999 NCD 06/02 Q1024
Conditions at: EKBI (BILLUND AIRPORT , DK) observed 2050 UTC 18 April 2021
Temperature: 6.0°C (43°F)
Dewpoint: 2.0°C (36°F) [RH = 75%]
Pressure (altimeter): 30.24 inches Hg (1024.0 mb)
Winds: from the NE (40 degrees) at 2 MPH (2 knots; 1.0 m/s)
Visibility: 6 or more miles (10+ km)
Ceiling: at least 12,000 feet AGL
Clouds: sky clear below 12,000 feet AGL
Weather: no significant weather observed at this time

METAR text: EKBI 182020Z AUTO 04002KT 9999 NCD 06/02 Q1024
Conditions at: EKBI (BILLUND AIRPORT , DK) observed 2020 UTC 18 April 2021
Temperature: 6.0°C (43°F)
Dewpoint: 2.0°C (36°F) [RH = 75%]
Pressure (altimeter): 30.24 inches Hg (1024.0 mb)
Winds: from the NE (40 degrees) at 2 MPH (2 knots; 1.0 m/s)
Visibility: 6 or more miles (10+ km)
Ceiling: at least 12,000 feet AGL
Clouds: sky clear below 12,000 feet AGL
Weather: no significant weather observed at this time

METAR text: EKBI 181950Z AUTO 01001KT 9999 FEW100/// 08/02 Q1024
Conditions at: EKBI (BILLUND AIRPORT , DK) observed 1950 UTC 18 April 2021
Temperature: 8.0°C (46°F)
Dewpoint: 2.0°C (36°F) [RH = 66%]
Pressure (altimeter): 30.24 inches Hg (1024.0 mb)
Winds: from the N (10 degrees) at 1 MPH (1 knots; 0.5 m/s)
Visibility: 6 or more miles (10+ km)
Ceiling: at least 12,000 feet AGL
Clouds: few clouds at 10000 feet AGL
Weather: no significant weather observed at this time

METAR text: EKBI 181920Z AUTO 02001KT 9999 BKN100/// 09/02 Q1024
Conditions at: EKBI (BILLUND AIRPORT , DK) observed 1920 UTC 18 April 2021
Temperature: 9.0°C (48°F)
Dewpoint: 2.0°C (36°F) [RH = 61%]
Pressure (altimeter): 30.24 inches Hg (1024.0 mb)
Winds: from the NNE (20 degrees) at 1 MPH (1 knots; 0.5 m/s)
Visibility: 6 or more miles (10+ km)
Ceiling: 10000 feet AGL
Clouds: broken clouds at 10000 feet AGL
Weather: no significant weather observed at this time

METAR text: EKBI 181850Z AUTO 04003KT 9999 SCT100/// 09/02 Q1024
Conditions at: EKBI (BILLUND AIRPORT , DK) observed 1850 UTC 18 April 2021
Temperature: 9.0°C (48°F)
Dewpoint: 2.0°C (36°F) [RH = 61%]
Pressure (altimeter): 30.24 inches Hg (1024.0 mb)
Winds: from the NE (40 degrees) at 3 MPH (3 knots; 1.5 m/s)
Visibility: 6 or more miles (10+ km)
Ceiling: at least 12,000 feet AGL
Clouds: scattered clouds at 10000 feet AGL
Weather: no significant weather observed at this time

METAR text: EKBI 181820Z AUTO 08004KT 9999 FEW082/// BKN100/// 11/02 Q1024
Conditions at: EKBI (BILLUND AIRPORT , DK) observed 1820 UTC 18 April 2021
Temperature: 11.0°C (52°F)
Dewpoint: 2.0°C (36°F) [RH = 54%]
Pressure (altimeter): 30.24 inches Hg (1024.0 mb)
Winds: from the E (80 degrees) at 5 MPH (4 knots; 2.1 m/s)
Visibility: 6 or more miles (10+ km)
Ceiling: 10000 feet AGL
Clouds: few clouds at 8200 feet AGL
broken clouds at 10000 feet AGL
Weather: no significant weather observed at this time

METAR text: EKBI 181750Z AUTO 07008KT 9999 OVC080/// 12/02 Q1024
Conditions at: EKBI (BILLUND AIRPORT , DK) observed 1750 UTC 18 April 2021
Temperature: 12.0°C (54°F)
Dewpoint: 2.0°C (36°F) [RH = 50%]
Pressure (altimeter): 30.24 inches Hg (1024.0 mb)
Winds: from the ENE (70 degrees) at 9 MPH (8 knots; 4.1 m/s)
Visibility: 6 or more miles (10+ km)
Ceiling: 8000 feet AGL
Clouds: overcast cloud deck at 8000 feet AGL
Weather: no significant weather observed at this time

METAR text: EKBI 181720Z AUTO 08008KT 9999 OVC098/// 13/02 Q1023
Conditions at: EKBI (BILLUND AIRPORT , DK) observed 1720 UTC 18 April 2021
Temperature: 13.0°C (55°F)
Dewpoint: 2.0°C (36°F) [RH = 47%]
Pressure (altimeter): 30.21 inches Hg (1023.0 mb)
Winds: from the E (80 degrees) at 9 MPH (8 knots; 4.1 m/s)
Visibility: 6 or more miles (10+ km)
Ceiling: 9800 feet AGL
Clouds: overcast cloud deck at 9800 feet AGL
Weather: no significant weather observed at this time

METAR text: EKBI 181650Z AUTO 09007KT 9999 BKN091/// 14/02 Q1023
Conditions at: EKBI (BILLUND AIRPORT , DK) observed 1650 UTC 18 April 2021
Temperature: 14.0°C (57°F)
Dewpoint: 2.0°C (36°F) [RH = 44%]
Pressure (altimeter): 30.21 inches Hg (1023.0 mb)
Winds: from the E (90 degrees) at 8 MPH (7 knots; 3.6 m/s)
Visibility: 6 or more miles (10+ km)
Ceiling: 9100 feet AGL
Clouds: broken clouds at 9100 feet AGL
Weather: no significant weather observed at this time

METAR text: EKBI 181620Z AUTO 09007KT 9999 BKN091/// 14/03 Q1023
Conditions at: EKBI (BILLUND AIRPORT , DK) observed 1620 UTC 18 April 2021
Temperature: 14.0°C (57°F)
Dewpoint: 3.0°C (37°F) [RH = 47%]
Pressure (altimeter): 30.21 inches Hg (1023.0 mb)
Winds: from the E (90 degrees) at 8 MPH (7 knots; 3.6 m/s)
Visibility: 6 or more miles (10+ km)
Ceiling: 9100 feet AGL
Clouds: broken clouds at 9100 feet AGL
Weather: no significant weather observed at this time

METAR text: EKBI 181550Z AUTO 08009KT 050V110 9999 FEW096/// 15/02 Q1023
Conditions at: EKBI (BILLUND AIRPORT , DK) observed 1550 UTC 18 April 2021
Temperature: 15.0°C (59°F)
Dewpoint: 2.0°C (36°F) [RH = 41%]
Pressure (altimeter): 30.21 inches Hg (1023.0 mb)
Winds: from the E (80 degrees) at 10 MPH (9 knots; 4.6 m/s)
Visibility: 6 or more miles (10+ km)
Ceiling: at least 12,000 feet AGL
Clouds: few clouds at 9600 feet AGL
Weather: no significant weather observed at this time

METAR text: EKBI 181520Z AUTO 10007KT 060V140 9999 FEW100/// 15/02 Q1023
Conditions at: EKBI (BILLUND AIRPORT , DK) observed 1520 UTC 18 April 2021
Temperature: 15.0°C (59°F)
Dewpoint: 2.0°C (36°F) [RH = 41%]
Pressure (altimeter): 30.21 inches Hg (1023.0 mb)
Winds: from the E (100 degrees) at 8 MPH (7 knots; 3.6 m/s)
Visibility: 6 or more miles (10+ km)
Ceiling: at least 12,000 feet AGL
Clouds: few clouds at 10000 feet AGL
Weather: no significant weather observed at this time

METAR text: EKBI 181450Z AUTO 11010KT 9999 FEW100/// 16/02 Q1023
Conditions at: EKBI (BILLUND AIRPORT , DK) observed 1450 UTC 18 April 2021
Temperature: 16.0°C (61°F)
Dewpoint: 2.0°C (36°F) [RH = 39%]
Pressure (altimeter): 30.21 inches Hg (1023.0 mb)
Winds: from the ESE (110 degrees) at 12 MPH (10 knots; 5.1 m/s)
Visibility: 6 or more miles (10+ km)
Ceiling: at least 12,000 feet AGL
Clouds: few clouds at 10000 feet AGL
Weather: no significant weather observed at this time

METAR text: EKBI 181420Z AUTO 11009KT 070V140 9999 NCD 16/03 Q1023
Conditions at: EKBI (BILLUND AIRPORT , DK) observed 1420 UTC 18 April 2021
Temperature: 16.0°C (61°F)
Dewpoint: 3.0°C (37°F) [RH = 42%]
Pressure (altimeter): 30.21 inches Hg (1023.0 mb)
Winds: from the ESE (110 degrees) at 10 MPH (9 knots; 4.6 m/s)
Visibility: 6 or more miles (10+ km)
Ceiling: at least 12,000 feet AGL
Clouds: sky clear below 12,000 feet AGL
Weather: no significant weather observed at this time

METAR text: EKBI 181350Z AUTO 10009KT 070V130 9999 NCD 15/02 Q1023
Conditions at: EKBI (BILLUND AIRPORT , DK) observed 1350 UTC 18 April 2021
Temperature: 15.0°C (59°F)
Dewpoint: 2.0°C (36°F) [RH = 41%]
Pressure (altimeter): 30.21 inches Hg (1023.0 mb)
Winds: from the E (100 degrees) at 10 MPH (9 knots; 4.6 m/s)
Visibility: 6 or more miles (10+ km)
Ceiling: at least 12,000 feet AGL
Clouds: sky clear below 12,000 feet AGL
Weather: no significant weather observed at this time

METAR text: EKBI 181320Z AUTO 08008KT 040V130 9999 NCD 15/03 Q1023
Conditions at: EKBI (BILLUND AIRPORT , DK) observed 1320 UTC 18 April 2021
Temperature: 15.0°C (59°F)
Dewpoint: 3.0°C (37°F) [RH = 44%]
Pressure (altimeter): 30.21 inches Hg (1023.0 mb)
Winds: from the E (80 degrees) at 9 MPH (8 knots; 4.1 m/s)
Visibility: 6 or more miles (10+ km)
Ceiling: at least 12,000 feet AGL
Clouds: sky clear below 12,000 feet AGL
Weather: no significant weather observed at this time

METAR text: EKBI 181250Z AUTO 07011KT 9999 NCD 15/01 Q1023
Conditions at: EKBI (BILLUND AIRPORT , DK) observed 1250 UTC 18 April 2021
Temperature: 15.0°C (59°F)
Dewpoint: 1.0°C (34°F) [RH = 39%]
Pressure (altimeter): 30.21 inches Hg (1023.0 mb)
Winds: from the ENE (70 degrees) at 13 MPH (11 knots; 5.7 m/s)
Visibility: 6 or more miles (10+ km)
Ceiling: at least 12,000 feet AGL
Clouds: sky clear below 12,000 feet AGL
Weather: no significant weather observed at this time

METAR text: EKBI 181220Z AUTO 09010KT 050V120 9999 NCD 15/01 Q1023
Conditions at: EKBI (BILLUND AIRPORT , DK) observed 1220 UTC 18 April 2021
Temperature: 15.0°C (59°F)
Dewpoint: 1.0°C (34°F) [RH = 39%]
Pressure (altimeter): 30.21 inches Hg (1023.0 mb)
Winds: from the E (90 degrees) at 12 MPH (10 knots; 5.1 m/s)
Visibility: 6 or more miles (10+ km)
Ceiling: at least 12,000 feet AGL
Clouds: sky clear below 12,000 feet AGL
Weather: no significant weather observed at this time

METAR text: EKBI 181150Z AUTO 07011KT 9999 NCD 14/01 Q1023
Conditions at: EKBI (BILLUND AIRPORT , DK) observed 1150 UTC 18 April 2021
Temperature: 14.0°C (57°F)
Dewpoint: 1.0°C (34°F) [RH = 41%]
Pressure (altimeter): 30.21 inches Hg (1023.0 mb)
Winds: from the ENE (70 degrees) at 13 MPH (11 knots; 5.7 m/s)
Visibility: 6 or more miles (10+ km)
Ceiling: at least 12,000 feet AGL
Clouds: sky clear below 12,000 feet AGL
Weather: no significant weather observed at this time

METAR text: EKBI 181120Z AUTO 07010KT 050V110 9999 NCD 14/01 Q1023
Conditions at: EKBI (BILLUND AIRPORT , DK) observed 1120 UTC 18 April 2021
Temperature: 14.0°C (57°F)
Dewpoint: 1.0°C (34°F) [RH = 41%]
Pressure (altimeter): 30.21 inches Hg (1023.0 mb)
Winds: from the ENE (70 degrees) at 12 MPH (10 knots; 5.1 m/s)
Visibility: 6 or more miles (10+ km)
Ceiling: at least 12,000 feet AGL
Clouds: sky clear below 12,000 feet AGL
Weather: no significant weather observed at this time

METAR text: EKBI 181050Z AUTO 07010KT 030V100 9999 NCD 13/01 Q1024
Conditions at: EKBI (BILLUND AIRPORT , DK) observed 1050 UTC 18 April 2021
Temperature: 13.0°C (55°F)
Dewpoint: 1.0°C (34°F) [RH = 44%]
Pressure (altimeter): 30.24 inches Hg (1024.0 mb)
Winds: from the ENE (70 degrees) at 12 MPH (10 knots; 5.1 m/s)
Visibility: 6 or more miles (10+ km)
Ceiling: at least 12,000 feet AGL
Clouds: sky clear below 12,000 feet AGL
Weather: no significant weather observed at this time

METAR text: EKBI 181020Z AUTO 06011KT 020V090 9999 NCD 13/00 Q1024
Conditions at: EKBI (BILLUND AIRPORT , DK) observed 1020 UTC 18 April 2021
Temperature: 13.0°C (55°F)
Dewpoint: 0.0°C (32°F) [RH = 41%]
Pressure (altimeter): 30.24 inches Hg (1024.0 mb)
Winds: from the ENE (60 degrees) at 13 MPH (11 knots; 5.7 m/s)
Visibility: 6 or more miles (10+ km)
Ceiling: at least 12,000 feet AGL
Clouds: sky clear below 12,000 feet AGL
Weather: no significant weather observed at this time

METAR text: EKBI 180950Z AUTO 07009KT 9999 NCD 12/01 Q1024
Conditions at: EKBI (BILLUND AIRPORT , DK) observed 0950 UTC 18 April 2021
Temperature: 12.0°C (54°F)
Dewpoint: 1.0°C (34°F) [RH = 47%]
Pressure (altimeter): 30.24 inches Hg (1024.0 mb)
Winds: from the ENE (70 degrees) at 10 MPH (9 knots; 4.6 m/s)
Visibility: 6 or more miles (10+ km)
Ceiling: at least 12,000 feet AGL
Clouds: sky clear below 12,000 feet AGL
Weather: no significant weather observed at this time

METAR text: EKBI 180920Z AUTO 06007KT 360V100 9999 NCD 12/01 Q1024
Conditions at: EKBI (BILLUND AIRPORT , DK) observed 0920 UTC 18 April 2021
Temperature: 12.0°C (54°F)
Dewpoint: 1.0°C (34°F) [RH = 47%]
Pressure (altimeter): 30.24 inches Hg (1024.0 mb)
Winds: from the ENE (60 degrees) at 8 MPH (7 knots; 3.6 m/s)
Visibility: 6 or more miles (10+ km)
Ceiling: at least 12,000 feet AGL
Clouds: sky clear below 12,000 feet AGL
Weather: no significant weather observed at this time

METAR text: EKBI 180850Z AUTO 04007KT 020V080 9999 FEW098/// 11/00 Q1024
Conditions at: EKBI (BILLUND AIRPORT , DK) observed 0850 UTC 18 April 2021
Temperature: 11.0°C (52°F)
Dewpoint: 0.0°C (32°F) [RH = 47%]
Pressure (altimeter): 30.24 inches Hg (1024.0 mb)
Winds: from the NE (40 degrees) at 8 MPH (7 knots; 3.6 m/s)
Visibility: 6 or more miles (10+ km)
Ceiling: at least 12,000 feet AGL
Clouds: few clouds at 9800 feet AGL
Weather: no significant weather observed at this time

METAR text: EKBI 180820Z AUTO 03008KT 010V070 9999 FEW098/// 10/00 Q1024
Conditions at: EKBI (BILLUND AIRPORT , DK) observed 0820 UTC 18 April 2021
Temperature: 10.0°C (50°F)
Dewpoint: 0.0°C (32°F) [RH = 50%]
Pressure (altimeter): 30.24 inches Hg (1024.0 mb)
Winds: from the NNE (30 degrees) at 9 MPH (8 knots; 4.1 m/s)
Visibility: 6 or more miles (10+ km)
Ceiling: at least 12,000 feet AGL
Clouds: few clouds at 9800 feet AGL
Weather: no significant weather observed at this time

METAR text: EKBI 180750Z AUTO 05007KT 9999 FEW100/// 09/00 Q1024
Conditions at: EKBI (BILLUND AIRPORT , DK) observed 0750 UTC 18 April 2021
Temperature: 9.0°C (48°F)
Dewpoint: 0.0°C (32°F) [RH = 53%]
Pressure (altimeter): 30.24 inches Hg (1024.0 mb)
Winds: from the NE (50 degrees) at 8 MPH (7 knots; 3.6 m/s)
Visibility: 6 or more miles (10+ km)
Ceiling: at least 12,000 feet AGL
Clouds: few clouds at 10000 feet AGL
Weather: no significant weather observed at this time

METAR text: EKBI 180720Z AUTO 05006KT 9999 NCD 08/00 Q1024
Conditions at: EKBI (BILLUND AIRPORT , DK) observed 0720 UTC 18 April 2021
Temperature: 8.0°C (46°F)
Dewpoint: 0.0°C (32°F) [RH = 57%]
Pressure (altimeter): 30.24 inches Hg (1024.0 mb)
Winds: from the NE (50 degrees) at 7 MPH (6 knots; 3.1 m/s)
Visibility: 6 or more miles (10+ km)
Ceiling: at least 12,000 feet AGL
Clouds: sky clear below 12,000 feet AGL
Weather: no significant weather observed at this time

METAR text: EKBI 180650Z AUTO 07008KT 9999 FEW094/// 08/00 Q1024
Conditions at: EKBI (BILLUND AIRPORT , DK) observed 0650 UTC 18 April 2021
Temperature: 8.0°C (46°F)
Dewpoint: 0.0°C (32°F) [RH = 57%]
Pressure (altimeter): 30.24 inches Hg (1024.0 mb)
Winds: from the ENE (70 degrees) at 9 MPH (8 knots; 4.1 m/s)
Visibility: 6 or more miles (10+ km)
Ceiling: at least 12,000 feet AGL
Clouds: few clouds at 9400 feet AGL
Weather: no significant weather observed at this time

METAR text: EKBI 180620Z AUTO 04007KT 9999 SCT094/// 07/00 Q1024
Conditions at: EKBI (BILLUND AIRPORT , DK) observed 0620 UTC 18 April 2021
Temperature: 7.0°C (45°F)
Dewpoint: 0.0°C (32°F) [RH = 61%]
Pressure (altimeter): 30.24 inches Hg (1024.0 mb)
Winds: from the NE (40 degrees) at 8 MPH (7 knots; 3.6 m/s)
Visibility: 6 or more miles (10+ km)
Ceiling: at least 12,000 feet AGL
Clouds: scattered clouds at 9400 feet AGL
Weather: no significant weather observed at this time

METAR text: EKBI 180550Z AUTO 04008KT 9999 BKN097/// 06/00 Q1024
Conditions at: EKBI (BILLUND AIRPORT , DK) observed 0550 UTC 18 April 2021
Temperature: 6.0°C (43°F)
Dewpoint: 0.0°C (32°F) [RH = 65%]
Pressure (altimeter): 30.24 inches Hg (1024.0 mb)
Winds: from the NE (40 degrees) at 9 MPH (8 knots; 4.1 m/s)
Visibility: 6 or more miles (10+ km)
Ceiling: 9700 feet AGL
Clouds: broken clouds at 9700 feet AGL
Weather: no significant weather observed at this time

METAR text: EKBI 180520Z AUTO 02005KT 9999 BKN100/// 06/00 Q1024
Conditions at: EKBI (BILLUND AIRPORT , DK) observed 0520 UTC 18 April 2021
Temperature: 6.0°C (43°F)
Dewpoint: 0.0°C (32°F) [RH = 65%]
Pressure (altimeter): 30.24 inches Hg (1024.0 mb)
Winds: from the NNE (20 degrees) at 6 MPH (5 knots; 2.6 m/s)
Visibility: 6 or more miles (10+ km)
Ceiling: 10000 feet AGL
Clouds: broken clouds at 10000 feet AGL
Weather: no significant weather observed at this time

METAR text: EKBI 180450Z AUTO 02006KT 9999 BKN100/// 06/01 Q1024
Conditions at: EKBI (BILLUND AIRPORT , DK) observed 0450 UTC 18 April 2021
Temperature: 6.0°C (43°F)
Dewpoint: 1.0°C (34°F) [RH = 70%]
Pressure (altimeter): 30.24 inches Hg (1024.0 mb)
Winds: from the NNE (20 degrees) at 7 MPH (6 knots; 3.1 m/s)
Visibility: 6 or more miles (10+ km)
Ceiling: 10000 feet AGL
Clouds: broken clouds at 10000 feet AGL
Weather: no significant weather observed at this time

METAR text: EKBI 180420Z AUTO 36003KT 9999 OVC092/// 04/02 Q1024
Conditions at: EKBI (BILLUND AIRPORT , DK) observed 0420 UTC 18 April 2021
Temperature: 4.0°C (39°F)
Dewpoint: 2.0°C (36°F) [RH = 87%]
Pressure (altimeter): 30.24 inches Hg (1024.0 mb)
Winds: from the N (360 degrees) at 3 MPH (3 knots; 1.5 m/s)
Visibility: 6 or more miles (10+ km)
Ceiling: 9200 feet AGL
Clouds: overcast cloud deck at 9200 feet AGL
Weather: no significant weather observed at this time

METAR text: EKBI 180350Z AUTO 35004KT 9999 FEW091/// BKN100/// 03/01 Q1024
Conditions at: EKBI (BILLUND AIRPORT , DK) observed 0350 UTC 18 April 2021
Temperature: 3.0°C (37°F)
Dewpoint: 1.0°C (34°F) [RH = 87%]
Pressure (altimeter): 30.24 inches Hg (1024.0 mb)
Winds: from the N (350 degrees) at 5 MPH (4 knots; 2.1 m/s)
Visibility: 6 or more miles (10+ km)
Ceiling: 10000 feet AGL
Clouds: few clouds at 9100 feet AGL
broken clouds at 10000 feet AGL
Weather: no significant weather observed at this time

METAR text: EKBI 180320Z AUTO 34004KT 9999 FEW110/// 02/00 Q1024
Conditions at: EKBI (BILLUND AIRPORT , DK) observed 0320 UTC 18 April 2021
Temperature: 2.0°C (36°F)
Dewpoint: 0.0°C (32°F) [RH = 87%]
Pressure (altimeter): 30.24 inches Hg (1024.0 mb)
Winds: from the NNW (340 degrees) at 5 MPH (4 knots; 2.1 m/s)
Visibility: 6 or more miles (10+ km)
Ceiling: at least 12,000 feet AGL
Clouds: few clouds at 11000 feet AGL
Weather: no significant weather observed at this time

METAR text: EKBI 180250Z AUTO 34003KT 9999 NCD 03/00 Q1024
Conditions at: EKBI (BILLUND AIRPORT , DK) observed 0250 UTC 18 April 2021
Temperature: 3.0°C (37°F)
Dewpoint: 0.0°C (32°F) [RH = 81%]
Pressure (altimeter): 30.24 inches Hg (1024.0 mb)
Winds: from the NNW (340 degrees) at 3 MPH (3 knots; 1.5 m/s)
Visibility: 6 or more miles (10+ km)
Ceiling: at least 12,000 feet AGL
Clouds: sky clear below 12,000 feet AGL
Weather: no significant weather observed at this time

METAR text: EKBI 180220Z AUTO 35003KT 9999 FEW100/// 05/01 Q1024
Conditions at: EKBI (BILLUND AIRPORT , DK) observed 0220 UTC 18 April 2021
Temperature: 5.0°C (41°F)
Dewpoint: 1.0°C (34°F) [RH = 75%]
Pressure (altimeter): 30.24 inches Hg (1024.0 mb)
Winds: from the N (350 degrees) at 3 MPH (3 knots; 1.5 m/s)
Visibility: 6 or more miles (10+ km)
Ceiling: at least 12,000 feet AGL
Clouds: few clouds at 10000 feet AGL
Weather: no significant weather observed at this time

METAR text: EKBI 180150Z AUTO 02003KT 9999 OVC100/// 06/02 Q1024
Conditions at: EKBI (BILLUND AIRPORT , DK) observed 0150 UTC 18 April 2021
Temperature: 6.0°C (43°F)
Dewpoint: 2.0°C (36°F) [RH = 75%]
Pressure (altimeter): 30.24 inches Hg (1024.0 mb)
Winds: from the NNE (20 degrees) at 3 MPH (3 knots; 1.5 m/s)
Visibility: 6 or more miles (10+ km)
Ceiling: 10000 feet AGL
Clouds: overcast cloud deck at 10000 feet AGL
Weather: no significant weather observed at this time

METAR text: EKBI 180120Z AUTO 36002KT 9999 FEW100/// BKN110/// 06/01 Q1024
Conditions at: EKBI (BILLUND AIRPORT , DK) observed 0120 UTC 18 April 2021
Temperature: 6.0°C (43°F)
Dewpoint: 1.0°C (34°F) [RH = 70%]
Pressure (altimeter): 30.24 inches Hg (1024.0 mb)
Winds: from the N (360 degrees) at 2 MPH (2 knots; 1.0 m/s)
Visibility: 6 or more miles (10+ km)
Ceiling: 11000 feet AGL
Clouds: few clouds at 10000 feet AGL
broken clouds at 11000 feet AGL
Weather: no significant weather observed at this time

METAR text: EKBI 180050Z AUTO 33001KT 9999 OVC110/// 06/01 Q1025
Conditions at: EKBI (BILLUND AIRPORT , DK) observed 0050 UTC 18 April 2021
Temperature: 6.0°C (43°F)
Dewpoint: 1.0°C (34°F) [RH = 70%]
Pressure (altimeter): 30.27 inches Hg (1025.0 mb)
Winds: from the NNW (330 degrees) at 1 MPH (1 knots; 0.5 m/s)
Visibility: 6 or more miles (10+ km)
Ceiling: 11000 feet AGL
Clouds: overcast cloud deck at 11000 feet AGL
Weather: no significant weather observed at this time

METAR text: EKBI 180020Z AUTO 32002KT 9999 OVC100/// 05/01 Q1025
Conditions at: EKBI (BILLUND AIRPORT , DK) observed 0020 UTC 18 April 2021
Temperature: 5.0°C (41°F)
Dewpoint: 1.0°C (34°F) [RH = 75%]
Pressure (altimeter): 30.27 inches Hg (1025.0 mb)
Winds: from the NW (320 degrees) at 2 MPH (2 knots; 1.0 m/s)
Visibility: 6 or more miles (10+ km)
Ceiling: 10000 feet AGL
Clouds: overcast cloud deck at 10000 feet AGL
Weather: no significant weather observed at this time

METAR text: EKBI 172350Z AUTO 36002KT 9999 SCT100/// 05/01 Q1025
Conditions at: EKBI (BILLUND AIRPORT , DK) observed 2350 UTC 17 April 2021
Temperature: 5.0°C (41°F)
Dewpoint: 1.0°C (34°F) [RH = 75%]
Pressure (altimeter): 30.27 inches Hg (1025.0 mb)
Winds: from the N (360 degrees) at 2 MPH (2 knots; 1.0 m/s)
Visibility: 6 or more miles (10+ km)
Ceiling: at least 12,000 feet AGL
Clouds: scattered clouds at 10000 feet AGL
Weather: no significant weather observed at this time

METAR text: EKBI 172320Z AUTO 36003KT 9999 NCD 04/01 Q1025
Conditions at: EKBI (BILLUND AIRPORT , DK) observed 2320 UTC 17 April 2021
Temperature: 4.0°C (39°F)
Dewpoint: 1.0°C (34°F) [RH = 81%]
Pressure (altimeter): 30.27 inches Hg (1025.0 mb)
Winds: from the N (360 degrees) at 3 MPH (3 knots; 1.5 m/s)
Visibility: 6 or more miles (10+ km)
Ceiling: at least 12,000 feet AGL
Clouds: sky clear below 12,000 feet AGL
Weather: no significant weather observed at this time

METAR text: EKBI 172250Z AUTO 36003KT 9999 BKN085/// 04/01 Q1025
Conditions at: EKBI (BILLUND AIRPORT , DK) observed 2250 UTC 17 April 2021
Temperature: 4.0°C (39°F)
Dewpoint: 1.0°C (34°F) [RH = 81%]
Pressure (altimeter): 30.27 inches Hg (1025.0 mb)
Winds: from the N (360 degrees) at 3 MPH (3 knots; 1.5 m/s)
Visibility: 6 or more miles (10+ km)
Ceiling: 8500 feet AGL
Clouds: broken clouds at 8500 feet AGL
Weather: no significant weather observed at this time

METAR text: EKBI 172220Z AUTO 34002KT 9999 FEW066/// SCT093/// 03/01 Q1025
Conditions at: EKBI (BILLUND AIRPORT , DK) observed 2220 UTC 17 April 2021
Temperature: 3.0°C (37°F)
Dewpoint: 1.0°C (34°F) [RH = 87%]
Pressure (altimeter): 30.27 inches Hg (1025.0 mb)
Winds: from the NNW (340 degrees) at 2 MPH (2 knots; 1.0 m/s)
Visibility: 6 or more miles (10+ km)
Ceiling: at least 12,000 feet AGL
Clouds: few clouds at 6600 feet AGL
scattered clouds at 9300 feet AGL
Weather: no significant weather observed at this time

METAR text: EKBI 172150Z AUTO 32002KT 9999 FEW067/// SCT088/// 05/01 Q1025
Conditions at: EKBI (BILLUND AIRPORT , DK) observed 2150 UTC 17 April 2021
Temperature: 5.0°C (41°F)
Dewpoint: 1.0°C (34°F) [RH = 75%]
Pressure (altimeter): 30.27 inches Hg (1025.0 mb)
Winds: from the NW (320 degrees) at 2 MPH (2 knots; 1.0 m/s)
Visibility: 6 or more miles (10+ km)
Ceiling: at least 12,000 feet AGL
Clouds: few clouds at 6700 feet AGL
scattered clouds at 8800 feet AGL
Weather: no significant weather observed at this time

METAR text: EKBI 172120Z AUTO 01002KT 9999 BKN068/// BKN092/// 07/02 Q1025
Conditions at: EKBI (BILLUND AIRPORT , DK) observed 2120 UTC 17 April 2021
Temperature: 7.0°C (45°F)
Dewpoint: 2.0°C (36°F) [RH = 70%]
Pressure (altimeter): 30.27 inches Hg (1025.0 mb)
Winds: from the N (10 degrees) at 2 MPH (2 knots; 1.0 m/s)
Visibility: 6 or more miles (10+ km)
Ceiling: 6800 feet AGL
Clouds: broken clouds at 6800 feet AGL
broken clouds at 9200 feet AGL
Weather: no significant weather observed at this time

METAR text: EKBI 172050Z AUTO 01003KT 9999 BKN088/// 07/02 Q1025
Conditions at: EKBI (BILLUND AIRPORT , DK) observed 2050 UTC 17 April 2021
Temperature: 7.0°C (45°F)
Dewpoint: 2.0°C (36°F) [RH = 70%]
Pressure (altimeter): 30.27 inches Hg (1025.0 mb)
Winds: from the N (10 degrees) at 3 MPH (3 knots; 1.5 m/s)
Visibility: 6 or more miles (10+ km)
Ceiling: 8800 feet AGL
Clouds: broken clouds at 8800 feet AGL
Weather: no significant weather observed at this time

METAR text: EKBI 172020Z AUTO 04004KT 9999 FEW090/// OVC130/// 06/03 Q1026
Conditions at: EKBI (BILLUND AIRPORT , DK) observed 2020 UTC 17 April 2021
Temperature: 6.0°C (43°F)
Dewpoint: 3.0°C (37°F) [RH = 81%]
Pressure (altimeter): 30.30 inches Hg (1026.0 mb)
Winds: from the NE (40 degrees) at 5 MPH (4 knots; 2.1 m/s)
Visibility: 6 or more miles (10+ km)
Ceiling: 13000 feet AGL
Clouds: few clouds at 9000 feet AGL
overcast cloud deck at 13000 feet AGL
Weather: no significant weather observed at this time

METAR text: EKBI 171950Z AUTO 35002KT 9999 FEW087/// BKN120/// 06/01 Q1025
Conditions at: EKBI (BILLUND AIRPORT , DK) observed 1950 UTC 17 April 2021
Temperature: 6.0°C (43°F)
Dewpoint: 1.0°C (34°F) [RH = 70%]
Pressure (altimeter): 30.27 inches Hg (1025.0 mb)
Winds: from the N (350 degrees) at 2 MPH (2 knots; 1.0 m/s)
Visibility: 6 or more miles (10+ km)
Ceiling: 12000 feet AGL
Clouds: few clouds at 8700 feet AGL
broken clouds at 12000 feet AGL
Weather: no significant weather observed at this time

METAR text: EKBI 171920Z AUTO 06001KT 9999 BKN110/// 06/01 Q1025
Conditions at: EKBI (BILLUND AIRPORT , DK) observed 1920 UTC 17 April 2021
Temperature: 6.0°C (43°F)
Dewpoint: 1.0°C (34°F) [RH = 70%]
Pressure (altimeter): 30.27 inches Hg (1025.0 mb)
Winds: from the ENE (60 degrees) at 1 MPH (1 knots; 0.5 m/s)
Visibility: 6 or more miles (10+ km)
Ceiling: 11000 feet AGL
Clouds: broken clouds at 11000 feet AGL
Weather: no significant weather observed at this time

METAR text: EKBI 171850Z AUTO 06004KT 9999 NCD 07/00 Q1025
Conditions at: EKBI (BILLUND AIRPORT , DK) observed 1850 UTC 17 April 2021
Temperature: 7.0°C (45°F)
Dewpoint: 0.0°C (32°F) [RH = 61%]
Pressure (altimeter): 30.27 inches Hg (1025.0 mb)
Winds: from the ENE (60 degrees) at 5 MPH (4 knots; 2.1 m/s)
Visibility: 6 or more miles (10+ km)
Ceiling: at least 12,000 feet AGL
Clouds: sky clear below 12,000 feet AGL
Weather: no significant weather observed at this time

METAR text: EKBI 171820Z AUTO 07005KT 9999 NCD 09/01 Q1025
Conditions at: EKBI (BILLUND AIRPORT , DK) observed 1820 UTC 17 April 2021
Temperature: 9.0°C (48°F)
Dewpoint: 1.0°C (34°F) [RH = 57%]
Pressure (altimeter): 30.27 inches Hg (1025.0 mb)
Winds: from the ENE (70 degrees) at 6 MPH (5 knots; 2.6 m/s)
Visibility: 6 or more miles (10+ km)
Ceiling: at least 12,000 feet AGL
Clouds: sky clear below 12,000 feet AGL
Weather: no significant weather observed at this time

METAR text: EKBI 171750Z AUTO 07007KT 9999 NCD 10/00 Q1025
Conditions at: EKBI (BILLUND AIRPORT , DK) observed 1750 UTC 17 April 2021
Temperature: 10.0°C (50°F)
Dewpoint: 0.0°C (32°F) [RH = 50%]
Pressure (altimeter): 30.27 inches Hg (1025.0 mb)
Winds: from the ENE (70 degrees) at 8 MPH (7 knots; 3.6 m/s)
Visibility: 6 or more miles (10+ km)
Ceiling: at least 12,000 feet AGL
Clouds: sky clear below 12,000 feet AGL
Weather: no significant weather observed at this time

METAR text: EKBI 171720Z AUTO 08009KT 9999 NCD 11/00 Q1025
Conditions at: EKBI (BILLUND AIRPORT , DK) observed 1720 UTC 17 April 2021
Temperature: 11.0°C (52°F)
Dewpoint: 0.0°C (32°F) [RH = 47%]
Pressure (altimeter): 30.27 inches Hg (1025.0 mb)
Winds: from the E (80 degrees) at 10 MPH (9 knots; 4.6 m/s)
Visibility: 6 or more miles (10+ km)
Ceiling: at least 12,000 feet AGL
Clouds: sky clear below 12,000 feet AGL
Weather: no significant weather observed at this time

METAR text: EKBI 171650Z AUTO 08010KT 9999 NCD 12/M00 Q1025
Conditions at: EKBI (BILLUND AIRPORT , DK) observed 1650 UTC 17 April 2021
Temperature: 12.0°C (54°F)
Dewpoint: 0.0°C (32°F) [RH = 44%]
Pressure (altimeter): 30.27 inches Hg (1025.0 mb)
Winds: from the E (80 degrees) at 12 MPH (10 knots; 5.1 m/s)
Visibility: 6 or more miles (10+ km)
Ceiling: at least 12,000 feet AGL
Clouds: sky clear below 12,000 feet AGL
Weather: no significant weather observed at this time

METAR text: EKBI 171620Z AUTO 06009KT 9999 NCD 13/00 Q1025
Conditions at: EKBI (BILLUND AIRPORT , DK) observed 1620 UTC 17 April 2021
Temperature: 13.0°C (55°F)
Dewpoint: 0.0°C (32°F) [RH = 41%]
Pressure (altimeter): 30.27 inches Hg (1025.0 mb)
Winds: from the ENE (60 degrees) at 10 MPH (9 knots; 4.6 m/s)
Visibility: 6 or more miles (10+ km)
Ceiling: at least 12,000 feet AGL
Clouds: sky clear below 12,000 feet AGL
Weather: no significant weather observed at this time

METAR text: EKBI 171550Z AUTO 07010KT 040V100 9999 NCD 13/01 Q1025
Conditions at: EKBI (BILLUND AIRPORT , DK) observed 1550 UTC 17 April 2021
Temperature: 13.0°C (55°F)
Dewpoint: 1.0°C (34°F) [RH = 44%]
Pressure (altimeter): 30.27 inches Hg (1025.0 mb)
Winds: from the ENE (70 degrees) at 12 MPH (10 knots; 5.1 m/s)
Visibility: 6 or more miles (10+ km)
Ceiling: at least 12,000 feet AGL
Clouds: sky clear below 12,000 feet AGL
Weather: no significant weather observed at this time

METAR text: EKBI 171520Z AUTO 06008KT 030V100 9999 NCD 13/M00 Q1025
Conditions at: EKBI (BILLUND AIRPORT , DK) observed 1520 UTC 17 April 2021
Temperature: 13.0°C (55°F)
Dewpoint: 0.0°C (32°F) [RH = 41%]
Pressure (altimeter): 30.27 inches Hg (1025.0 mb)
Winds: from the ENE (60 degrees) at 9 MPH (8 knots; 4.1 m/s)
Visibility: 6 or more miles (10+ km)
Ceiling: at least 12,000 feet AGL
Clouds: sky clear below 12,000 feet AGL
Weather: no significant weather observed at this time

METAR text: EKBI 171450Z AUTO 08010KT 040V100 9999 NCD 13/00 Q1025
Conditions at: EKBI (BILLUND AIRPORT , DK) observed 1450 UTC 17 April 2021
Temperature: 13.0°C (55°F)
Dewpoint: 0.0°C (32°F) [RH = 41%]
Pressure (altimeter): 30.27 inches Hg (1025.0 mb)
Winds: from the E (80 degrees) at 12 MPH (10 knots; 5.1 m/s)
Visibility: 6 or more miles (10+ km)
Ceiling: at least 12,000 feet AGL
Clouds: sky clear below 12,000 feet AGL
Weather: no significant weather observed at this time

METAR text: EKBI 171420Z AUTO 06011KT 030V090 9999 NCD 13/00 Q1025
Conditions at: EKBI (BILLUND AIRPORT , DK) observed 1420 UTC 17 April 2021
Temperature: 13.0°C (55°F)
Dewpoint: 0.0°C (32°F) [RH = 41%]
Pressure (altimeter): 30.27 inches Hg (1025.0 mb)
Winds: from the ENE (60 degrees) at 13 MPH (11 knots; 5.7 m/s)
Visibility: 6 or more miles (10+ km)
Ceiling: at least 12,000 feet AGL
Clouds: sky clear below 12,000 feet AGL
Weather: no significant weather observed at this time

METAR text: EKBI 171350Z AUTO 08011KT 040V110 9999 FEW094/// 13/M00 Q1025
Conditions at: EKBI (BILLUND AIRPORT , DK) observed 1350 UTC 17 April 2021
Temperature: 13.0°C (55°F)
Dewpoint: 0.0°C (32°F) [RH = 41%]
Pressure (altimeter): 30.27 inches Hg (1025.0 mb)
Winds: from the E (80 degrees) at 13 MPH (11 knots; 5.7 m/s)
Visibility: 6 or more miles (10+ km)
Ceiling: at least 12,000 feet AGL
Clouds: few clouds at 9400 feet AGL
Weather: no significant weather observed at this time

METAR text: EKBI 171320Z AUTO 05011KT 020V090 9999 NCD 14/01 Q1025
Conditions at: EKBI (BILLUND AIRPORT , DK) observed 1320 UTC 17 April 2021
Temperature: 14.0°C (57°F)
Dewpoint: 1.0°C (34°F) [RH = 41%]
Pressure (altimeter): 30.27 inches Hg (1025.0 mb)
Winds: from the NE (50 degrees) at 13 MPH (11 knots; 5.7 m/s)
Visibility: 6 or more miles (10+ km)
Ceiling: at least 12,000 feet AGL
Clouds: sky clear below 12,000 feet AGL
Weather: no significant weather observed at this time

METAR text: EKBI 171250Z AUTO 07010KT 030V100 9999 NCD 13/00 Q1025
Conditions at: EKBI (BILLUND AIRPORT , DK) observed 1250 UTC 17 April 2021
Temperature: 13.0°C (55°F)
Dewpoint: 0.0°C (32°F) [RH = 41%]
Pressure (altimeter): 30.27 inches Hg (1025.0 mb)
Winds: from the ENE (70 degrees) at 12 MPH (10 knots; 5.1 m/s)
Visibility: 6 or more miles (10+ km)
Ceiling: at least 12,000 feet AGL
Clouds: sky clear below 12,000 feet AGL
Weather: no significant weather observed at this time

METAR text: EKBI 171220Z AUTO 08012KT 9999 FEW120/// 13/02 Q1025
Conditions at: EKBI (BILLUND AIRPORT , DK) observed 1220 UTC 17 April 2021
Temperature: 13.0°C (55°F)
Dewpoint: 2.0°C (36°F) [RH = 47%]
Pressure (altimeter): 30.27 inches Hg (1025.0 mb)
Winds: from the E (80 degrees) at 14 MPH (12 knots; 6.2 m/s)
Visibility: 6 or more miles (10+ km)
Ceiling: at least 12,000 feet AGL
Clouds: few clouds at 12000 feet AGL
Weather: no significant weather observed at this time

METAR text: EKBI 171150Z AUTO 05009G19KT 010V100 9999 BKN110/// 13/M02 Q1025
Conditions at: EKBI (BILLUND AIRPORT , DK) observed 1150 UTC 17 April 2021
Temperature: 13.0°C (55°F)
Dewpoint: -2.0°C (28°F) [RH = 35%]
Pressure (altimeter): 30.27 inches Hg (1025.0 mb)
Winds: from the NE (50 degrees) at 10 MPH (9 knots; 4.6 m/s)
gusting to 22 MPH (19 knots; 9.8 m/s)
Visibility: 6 or more miles (10+ km)
Ceiling: 11000 feet AGL
Clouds: broken clouds at 11000 feet AGL
Weather: no significant weather observed at this time

METAR text: EKBI 171120Z AUTO 03011KT 9999 BKN091/// 13/M02 Q1025
Conditions at: EKBI (BILLUND AIRPORT , DK) observed 1120 UTC 17 April 2021
Temperature: 13.0°C (55°F)
Dewpoint: -2.0°C (28°F) [RH = 35%]
Pressure (altimeter): 30.27 inches Hg (1025.0 mb)
Winds: from the NNE (30 degrees) at 13 MPH (11 knots; 5.7 m/s)
Visibility: 6 or more miles (10+ km)
Ceiling: 9100 feet AGL
Clouds: broken clouds at 9100 feet AGL
Weather: no significant weather observed at this time

METAR text: EKBI 171050Z AUTO 05013KT 9999 OVC090/// 12/M02 Q1025
Conditions at: EKBI (BILLUND AIRPORT , DK) observed 1050 UTC 17 April 2021
Temperature: 12.0°C (54°F)
Dewpoint: -2.0°C (28°F) [RH = 38%]
Pressure (altimeter): 30.27 inches Hg (1025.0 mb)
Winds: from the NE (50 degrees) at 15 MPH (13 knots; 6.7 m/s)
Visibility: 6 or more miles (10+ km)
Ceiling: 9000 feet AGL
Clouds: overcast cloud deck at 9000 feet AGL
Weather: no significant weather observed at this time

METAR text: EKBI 171020Z AUTO 04013KT 9999 OVC097/// 13/M01 Q1026
Conditions at: EKBI (BILLUND AIRPORT , DK) observed 1020 UTC 17 April 2021
Temperature: 13.0°C (55°F)
Dewpoint: -1.0°C (30°F) [RH = 38%]
Pressure (altimeter): 30.30 inches Hg (1026.0 mb)
Winds: from the NE (40 degrees) at 15 MPH (13 knots; 6.7 m/s)
Visibility: 6 or more miles (10+ km)
Ceiling: 9700 feet AGL
Clouds: overcast cloud deck at 9700 feet AGL
Weather: no significant weather observed at this time

Forecast for: EKBI (BILLUND AIRPORT , DK)
Text: TAF EKBI 181705Z 1818/1918 09008KT CAVOK
Forecast period: 1800 UTC 18 April 2021 to 1800 UTC 19 April 2021
Forecast type: FROM: standard forecast or significant change
Winds: from the E (90 degrees) at 9 MPH (8 knots; 4.1 m/s)
Visibility: 6 or more miles (10+ km)
Ceiling: unknown
Clouds: missing
Weather: NSW  (no significant weather)